• Join FlightAware (Why Join?)
  • Login
  • US Flag 
05:57PM EDT


 

Airport Tracker/Info


-or-


 

Live Flight TrackerFlight Track Log ✈ QJE1798 ✈ 29-Jun-2013 ✈ YBBN / BNE - YBAS / ASP

Flight Track Log - Related Links

Times and Time Zones

All times are in EDT time to prevent confusion due to time zone crossing. See the QJE1798 flight status page for this flight to view local times or setup timezone preferences in your user account.

Time Position Orientation Groundspeed Altitude Reporting Facility
EDT Latitude Longitude Course Direction KTS MPH feet Rate Location/Type
06:25PM -27.4068 153.1167 210° Southwest 155 178 1,100  Level Aus ATC (RADAR)
06:25PM -27.4310 153.1011 210° Southwest 171 197 2,000 1,680 Climbing Aus ATC (RADAR)
06:26PM -27.4809 153.0735 206° Southwest 219 252 3,700 1,980 Climbing Aus ATC (RADAR)
06:27PM -27.4914 152.9965 261° West 269 310 5,900 1,920 Climbing Aus ATC (RADAR)
06:28PM -27.4805 152.9352 281° West 289 333 6,900 1,320 Climbing Aus ATC (RADAR)
06:28PM -27.4704 152.8755 281° West 322 371 7,600 1,440 Climbing Aus ATC (RADAR)
06:29PM -27.4551 152.8117 285° West 351 404 8,600 1,920 Climbing Aus ATC (RADAR)
06:29PM -27.4426 152.7561 284° West 356 410 9,700 1,980 Climbing Aus ATC (RADAR)
06:30PM -27.4270 152.6903 285° West 363 418 10,800 2,100 Climbing Aus ATC (RADAR)
06:31PM -27.4063 152.6036 285° West 374 430 12,500 2,400 Climbing Aus ATC (RADAR)
06:31PM -27.3914 152.5353 284° West 374 430 14,000 2,460 Climbing Aus ATC (RADAR)
06:32PM -27.3752 152.4674 285° West 373 429 15,400 2,400 Climbing Aus ATC (RADAR)
06:33PM -27.3575 152.3903 284° West 371 427 17,000 2,040 Climbing Aus ATC (RADAR)
06:34PM -27.3298 152.2756 285° West 369 425 18,800 1,740 Climbing Aus ATC (RADAR)
06:34PM -27.3079 152.1873 286° West 380 437 20,100 1,860 Climbing Aus ATC (RADAR)
06:35PM -27.2918 152.1193 285° West 378 435 21,300 2,460 Climbing Aus ATC (RADAR)
06:35PM -27.2787 152.0629 285° West 364 419 22,800 1,680 Climbing Aus ATC (RADAR)
06:36PM -27.2560 151.9724 286° West 357 411 23,600 900 Climbing Aus ATC (RADAR)
06:37PM -27.2404 151.9074 285° West 362 417 24,100 840 Climbing Aus ATC (RADAR)
06:37PM -27.2242 151.8417 285° West 368 423 24,600 780 Climbing Aus ATC (RADAR)
06:38PM -27.2106 151.7852 285° West 369 425 25,000 780 Climbing Aus ATC (RADAR)
06:39PM -27.1957 151.7186 284° West 364 419 25,500 720 Climbing Aus ATC (RADAR)
06:39PM -27.1788 151.6514 286° West 374 430 25,900 900 Climbing Aus ATC (RADAR)
06:40PM -27.1652 151.5940 285° West 375 432 26,500 1,080 Climbing Aus ATC (RADAR)
06:40PM -27.1488 151.5281 286° West 367 422 27,100 1,020 Climbing Aus ATC (RADAR)
06:41PM -27.1301 151.4528 286° West 367 422 27,800 840 Climbing Aus ATC (RADAR)
06:41PM -27.1165 151.3962 285° West 367 422 28,100 600 Climbing Aus ATC (RADAR)
06:42PM -27.0998 151.3311 286° West 362 417 28,500 720 Climbing Aus ATC (RADAR)
06:42PM -27.0862 151.2743 285° West 366 421 28,900 780 Climbing Aus ATC (RADAR)
06:43PM -27.0696 151.2086 286° West 367 422 29,400 780 Climbing Aus ATC (RADAR)
06:44PM -27.0557 151.1526 286° West 362 417 29,800 780 Climbing Aus ATC (RADAR)
06:44PM -27.0395 151.0869 285° West 364 419 30,300 300 Climbing Aus ATC (RADAR)
06:45PM -27.0230 151.0216 286° West 366 421 30,200 -120 Descending Aus ATC (RADAR)
06:45PM -27.0070 150.9564 285° West 360 414 30,200  Level Aus ATC (RADAR)
06:46PM -26.9787 150.8434 286° West 371 427 30,200  Level Aus ATC (RADAR)
06:47PM -26.9550 150.7498 286° West 369 425 30,200  Level Aus ATC (RADAR)
06:48PM -26.9388 150.6841 285° West 370 426 30,200  Level Aus ATC (RADAR)
06:48PM -26.9200 150.6093 286° West 370 426 30,200  Level Aus ATC (RADAR)
06:49PM -26.9034 150.5439 286° West 370 426 30,200  Level Aus ATC (RADAR)
06:50PM -26.8870 150.4779 286° West 371 427 30,200  Level Aus ATC (RADAR)
06:50PM -26.8699 150.4128 286° West 370 426 30,200  Level Aus ATC (RADAR)
06:51PM -26.8565 150.3465 283° West 369 425 30,200  Level Aus ATC (RADAR)
06:51PM -26.8452 150.2894 282° West 367 422 30,200  Level Aus ATC (RADAR)
06:52PM -26.8320 150.2227 283° West 372 428 30,200  Level Aus ATC (RADAR)
06:52PM -26.8193 150.1569 282° West 366 421 30,200  Level Aus ATC (RADAR)
06:53PM -26.8067 150.0913 282° West 364 419 30,200  Level Aus ATC (RADAR)
06:53PM -26.7951 150.0342 283° West 370 426 30,200  Level Aus ATC (RADAR)
06:54PM -26.7805 149.9585 282° West 370 426 30,200  Level Aus ATC (RADAR)
06:55PM -26.7614 149.8634 283° West 372 428 30,200  Level Aus ATC (RADAR)
06:56PM -26.7330 149.7214 283° West 372 428 30,200  Level Aus ATC (RADAR)
06:57PM -26.7164 149.6362 282° West 372 428 30,200  Level Aus ATC (RADAR)
06:58PM -26.7029 149.5700 283° West 373 429 30,200  Level Aus ATC (RADAR)
06:58PM -26.6878 149.4943 283° West 373 429 30,200  Level Aus ATC (RADAR)
06:59PM -26.6750 149.4283 282° West 373 429 30,200  Level Aus ATC (RADAR)
06:59PM -26.6633 149.3711 283° West 375 432 30,200  Level Aus ATC (RADAR)
07:00PM -26.6498 149.3051 283° West 372 428 30,200  Level Aus ATC (RADAR)
07:00PM -26.6359 149.2385 283° West 374 430 30,200  Level Aus ATC (RADAR)
07:02PM -26.6096 149.1054 282° West 376 433 30,200  Level Aus ATC (RADAR)
07:03PM -26.5863 148.9913 283° West 375 432 30,200  Level Aus ATC (RADAR)
07:03PM -26.5708 148.9152 283° West 376 433 30,200  Level Aus ATC (RADAR)
07:04PM -26.5571 148.8489 283° West 376 433 30,200  Level Aus ATC (RADAR)
07:04PM -26.5435 148.7824 283° West 375 432 30,200  Level Aus ATC (RADAR)
07:05PM -26.5341 148.7141 279° West 382 440 30,200  Level Aus ATC (RADAR)
07:06PM -26.5249 148.6464 279° West 378 435 30,200  Level Aus ATC (RADAR)
07:06PM -26.5128 148.5504 278° West 375 432 30,200  Level Aus ATC (RADAR)
07:07PM -26.4970 148.4355 279° West 372 428 30,200  Level Aus ATC (RADAR)
07:08PM -26.4885 148.3605 277° West 365 420 30,200  Level Aus ATC (RADAR)
07:09PM -26.4788 148.2926 279° West 377 434 30,200  Level Aus ATC (RADAR)
07:09PM -26.4700 148.2258 278° West 373 429 30,200  Level Aus ATC (RADAR)
07:10PM -26.4611 148.1587 278° West 374 430 30,200  Level Aus ATC (RADAR)
07:10PM -26.4520 148.0916 279° West 374 430 30,200  Level Aus ATC (RADAR)
07:11PM -26.4392 147.9953 278° West 376 433 30,200  Level Aus ATC (RADAR)
07:12PM -26.4299 147.9287 279° West 373 429 30,200 60 Level Aus ATC (RADAR)
07:12PM -26.4202 147.8615 279° West 375 432 30,300 60 Climbing Aus ATC (RADAR)
07:13PM -26.4103 147.7849 278° West 375 432 30,300  Level Aus ATC (RADAR)
07:14PM -26.4010 147.7175 279° West 376 433 30,300  Level Aus ATC (RADAR)
07:14PM -26.3931 147.6605 279° West 373 429 30,300  Level Aus ATC (RADAR)
07:15PM -26.3812 147.5751 279° West 371 427 30,300  Level Aus ATC (RADAR)
07:15PM -26.3715 147.5082 279° West 374 430 30,300  Level Aus ATC (RADAR)
07:17PM -26.3508 147.3635 279° West 381 438 30,300  Level Aus ATC (RADAR)
07:17PM -26.3414 147.3045 280° West 385 443 30,300  Level Aus ATC (RADAR)
07:18PM -26.3245 147.1980 280° West 382 440 30,300  Level Aus ATC (RADAR)
07:21PM -26.2696 146.8087 279° West 32,000 480 Climbing Aus ATC (Calculated)
07:23PM -26.2504 146.6739 279° West  Level FlightAware Approximate
07:24PM -26.2343 146.5617 279° West  Level FlightAware Approximate
07:25PM -26.2182 146.4495 279° West  Level FlightAware Approximate
07:26PM -26.2019 146.3373 279° West  Level FlightAware Approximate
07:27PM -26.1856 146.2252 279° West  Level FlightAware Approximate
07:28PM -26.1691 146.1131 279° West  Level FlightAware Approximate
07:29PM -26.1526 146.0010 279° West  Level FlightAware Approximate
07:30PM -26.1360 145.8889 279° West  Level FlightAware Approximate
07:31PM -26.1193 145.7769 279° West  Level FlightAware Approximate
07:32PM -26.1025 145.6649 279° West  Level FlightAware Approximate
07:33PM -26.0856 145.5530 280° West  Level FlightAware Approximate
07:34PM -26.0687 145.4410 280° West  Level FlightAware Approximate
07:35PM -26.0516 145.3291 280° West  Level FlightAware Approximate
07:36PM -26.0345 145.2173 280° West  Level FlightAware Approximate
07:37PM -26.0173 145.1055 280° West  Level FlightAware Approximate
07:38PM -26.0000 144.9937 280° West  Level FlightAware Approximate
07:39PM -25.9826 144.8819 280° West  Level FlightAware Approximate
07:39PM -25.9750 144.8530 278° West 32,000  Level Aus ATC (Calculated)
07:40PM -25.9613 144.7407 278° West  Level FlightAware Approximate
07:41PM -25.9750 144.8530 98° East  Level FlightAware Approximate
07:42PM -25.9613 144.7407 278° West  Level FlightAware Approximate
07:42PM -25.9288 144.5622 101° East 32,000  Level Aus ATC (Calculated)
07:44PM -25.9583 144.7274 280° West  Level FlightAware Approximate
07:44PM -25.8944 144.3479 280° West 32,000  Level Aus ATC (Calculated)
07:46PM -25.8603 144.1378 280° West  Level FlightAware Approximate
07:46PM -25.8454 144.0467 280° West 32,000  Level Aus ATC (Calculated)
07:48PM -25.8134 143.8517 280° West  Level FlightAware Approximate
07:49PM -25.7950 143.7403 280° West  Level FlightAware Approximate
07:50PM -25.7764 143.6290 280° West  Level FlightAware Approximate
07:50PM -25.7703 143.5922 200° South 32,000  Level Aus ATC (Calculated)
07:50PM -25.7703 143.5922 281° West 32,000  Level Aus ATC (Calculated)
07:52PM -25.7332 143.3715 281° West  Level FlightAware Approximate
07:53PM -25.7144 143.2603 281° West  Level FlightAware Approximate
07:54PM -25.6956 143.1491 281° West  Level FlightAware Approximate
07:55PM -25.6766 143.0379 281° West  Level FlightAware Approximate
07:56PM -25.6576 142.9268 281° West  Level FlightAware Approximate
07:57PM -25.6384 142.8158 281° West  Level FlightAware Approximate
07:58PM -25.6192 142.7047 281° West  Level FlightAware Approximate
07:59PM -25.5999 142.5937 281° West  Level FlightAware Approximate
08:00PM -25.5805 142.4827 281° West  Level FlightAware Approximate
08:01PM -25.5611 142.3718 281° West  Level FlightAware Approximate
08:01PM -25.5469 142.2916 281° West 32,000  Level Aus ATC (Calculated)
08:03PM -25.5083 142.0736 281° West  Level FlightAware Approximate
08:04PM -25.4885 141.9628 281° West  Level FlightAware Approximate
08:05PM -25.4686 141.8520 281° West  Level FlightAware Approximate
08:06PM -25.4487 141.7413 281° West  Level FlightAware Approximate
08:07PM -25.4286 141.6306 281° West  Level FlightAware Approximate
08:08PM -25.4085 141.5199 281° West  Level FlightAware Approximate
08:08PM -25.3928 141.4336 281° West 32,000  Level Aus ATC (Calculated)
08:09PM -25.3883 141.4093 281° West  Level FlightAware Approximate
08:10PM -25.3661 141.2880 281° West  Level FlightAware Approximate
08:11PM -25.3457 141.1775 281° West  Level FlightAware Approximate
08:11PM -25.3403 141.1481 282° West 32,000  Level Aus ATC (Calculated)
08:11PM -25.3200 141.0389 50° Northeast 32,000  Level Aus ATC (Calculated)
08:12PM -25.2383 141.1481 North  Level FlightAware Approximate
08:13PM -25.3212 141.0457 282° West  Level FlightAware Approximate
08:13PM -25.2893 140.8752 282° West 32,000  Level Aus ATC (Calculated)
08:15PM -25.2558 140.6977 282° West  Level FlightAware Approximate
08:16PM -25.2351 140.5880 282° West  Level FlightAware Approximate
08:17PM -25.2142 140.4784 282° West  Level FlightAware Approximate
08:18PM -25.1932 140.3688 282° West  Level FlightAware Approximate
08:19PM -25.1722 140.2592 282° West  Level FlightAware Approximate
08:20PM -25.1511 140.1497 282° West  Level FlightAware Approximate
08:21PM -25.1299 140.0402 282° West  Level FlightAware Approximate
08:22PM -25.1086 139.9307 282° West  Level FlightAware Approximate
08:23PM -25.0872 139.8213 282° West  Level FlightAware Approximate
08:24PM -25.0658 139.7119 282° West  Level FlightAware Approximate
08:25PM -25.0443 139.6026 282° West  Level FlightAware Approximate
08:26PM -25.0227 139.4932 282° West  Level FlightAware Approximate
08:26PM -24.9836 139.2966 282° West 32,000  Level Aus ATC (Calculated)
08:28PM -24.9556 139.1565 282° West  Level FlightAware Approximate
08:28PM -24.9619 139.1880 282° West 32,000  Level Aus ATC (Calculated)
08:30PM -24.9191 138.9752 282° West  Level FlightAware Approximate
08:31PM -24.8971 138.8661 283° West  Level FlightAware Approximate
08:32PM -24.8749 138.7571 283° West  Level FlightAware Approximate
08:33PM -24.8527 138.6481 283° West  Level FlightAware Approximate
08:34PM -24.8304 138.5391 283° West  Level FlightAware Approximate
08:35PM -24.8080 138.4301 283° West  Level FlightAware Approximate
08:36PM -24.7856 138.3213 283° West  Level FlightAware Approximate
08:37PM -24.7631 138.2124 283° West  Level FlightAware Approximate
08:38PM -24.7404 138.1036 283° West  Level FlightAware Approximate
08:38PM -24.7180 137.9962 283° West 32,000  Level Aus ATC (Calculated)
08:40PM -24.6766 137.7987 283° West  Level FlightAware Approximate
08:40PM -24.6613 137.7260 283° West 32,000  Level Aus ATC (Calculated)
08:42PM -24.6243 137.5512 283° West  Level FlightAware Approximate
08:42PM -24.6258 137.5581 103° East 32,000  Level Aus ATC (Calculated)
08:43PM -24.6489 137.6673 103° East  Level FlightAware Approximate
08:43PM -24.5894 137.3874 283° West 32,000  Level Aus ATC (Calculated)
08:44PM -24.5651 137.2736 103° East 32,000  Level Aus ATC (Calculated)
08:46PM -24.5997 137.4355 103° East  Level FlightAware Approximate
08:46PM -24.5039 136.9894 103° East 32,000  Level Aus ATC (Calculated)
08:47PM -24.6229 137.5447 103° East  Level FlightAware Approximate
08:48PM -24.4789 136.8731 283° West  Level Estimated
08:49PM -24.4549 136.7642 284° West  Level FlightAware Approximate
08:50PM -24.4311 136.6553 284° West  Level FlightAware Approximate
08:51PM -24.4549 136.7642 104° East  Level FlightAware Approximate
08:51PM -24.4147 136.5811 104° East 900  Level Aus ATC (Calculated)
08:52PM -24.4387 136.6899 104° East  Level FlightAware Approximate
08:52PM -24.3748 136.4001 180° South 900  Level Aus ATC (Calculated)
08:52PM -24.3748 136.4001 104° East 900  Level Aus ATC (Calculated)
08:53PM -24.4625 136.7988 104° East  Level FlightAware Approximate
08:54PM -24.4120 136.5687 104° East  Level FlightAware Approximate
08:55PM -24.4134 136.5748 284° West  Level FlightAware Approximate
08:56PM -24.3894 136.4660 284° West  Level FlightAware Approximate
08:57PM -24.3653 136.3573 284° West  Level FlightAware Approximate
08:57PM -24.2739 135.9481 284° West 900  Level Aus ATC (Calculated)
08:59PM -24.2392 135.7943 284° West  Level FlightAware Approximate
09:00PM -24.2146 135.6858 284° West  Level FlightAware Approximate
09:01PM -24.1900 135.5774 284° West  Level FlightAware Approximate
09:02PM -24.1653 135.4689 284° West  Level FlightAware Approximate
09:03PM -24.1405 135.3606 284° West  Level FlightAware Approximate
09:04PM -24.1156 135.2522 284° West  Level FlightAware Approximate
09:04PM -24.1097 135.2264 360° North 900  Level Aus ATC (Calculated)
09:04PM -24.1097 135.2264 284° West 900  Level Aus ATC (Calculated)
09:06PM -24.0776 135.0874 284° West  Level FlightAware Approximate
09:06PM -24.0681 135.0463 284° West 900  Level Aus ATC (Calculated)
09:08PM -24.0271 134.8695 284° West  Level FlightAware Approximate
09:08PM -24.0053 134.7763 284° West 900  Level Aus ATC (Calculated)
09:09PM -24.0019 134.7614 284° West  Level FlightAware Approximate
09:09PM -23.9843 134.6863 284° West 900  Level Aus ATC (Calculated)
09:10PM -23.9771 134.6556 284° West  Level FlightAware Approximate
09:11PM -23.9492 134.5368 284° West  Level FlightAware Approximate
09:11PM -23.9421 134.5065 284° West 900  Level Aus ATC (Calculated)
09:12PM -23.9238 134.4288 284° West  Level FlightAware Approximate
09:13PM -23.9068 134.3572 284° West  Level FlightAware Approximate
09:13PM -23.8997 134.3269 285° West 900  Level Aus ATC (Calculated)
09:14PM -23.8813 134.2492 285° West  Level FlightAware Approximate
09:14PM -23.8784 134.2371 285° West 900  Level Aus ATC (Calculated)
09:16PM -23.8364 134.0609 285° West  Level FlightAware Approximate
09:17PM -23.8106 133.9531 285° West  Level FlightAware Approximate
09:17PM -23.8142 133.9679 277° West 900  Level Aus ATC (Calculated)
09:19PM -23.8067 133.9022 285° West  Level Estimated
09:20PM -23.8067 133.9022 302° West  Level Estimated